Caribbean Princess — ZCDG8 — position and weather

sailwx.info

Track history (hours):
 
Tides and Currents Weather Stations Pressure Air Temp Water Temp Dewpoint Dewpoint Depression Visibility Wind Speed Wind Dir Waves Ship Positions

Caribbean Princess

Operator: Princess Cruises

Last reported at 2017-Sep-25 22:00 UTC. Time now 2017-Sep-26 03:59 UTC.
Position N 45°48' W 008°12'.

Type: Passenger vessel. MMSI: 310423000.

Barometer 1019.5 mb
Air temperature 17.0 ° C
Visibility: greater than 10.8 NM
Dewpoint -2.6 ° C
Water temperature 17.0 ° C

Date/timePositionNaut miles runAvg speedWind from/ knotsBaromVisibWave heightAir tempDewpointWater temp
2017-Sep-25 22:00N 45°48' W 008°12'12116.4 1019.510.8 17.0-2.617.0
2017-Sep-25 14:38N 47°35' W 006°50'7519.1
2017-Sep-25 10:43N 48°41' W 005°59'519.2
2017-Sep-25 10:29N 48°45' W 005°55'918.8
2017-Sep-25 10:00N 48°53' W 005°48'917.6
2017-Sep-25 09:30N 48°58' W 005°36'917.0
2017-Sep-25 09:00N 49°02' W 005°25'817.0
2017-Sep-25 08:30N 49°06' W 005°14'816.5
2017-Sep-25 08:00N 49°10' W 005°03'816.1
2017-Sep-25 07:29N 49°15' W 004°52'816.1
2017-Sep-25 07:00N 49°19' W 004°42'815.9
2017-Sep-25 06:29N 49°24' W 004°32'816.4
2017-Sep-25 06:00N 49°28' W 004°21'1016.9
2017-Sep-25 05:23N 49°33' W 004°07'717.5
2017-Sep-25 05:00N 49°36' W 003°58'918.2
2017-Sep-25 04:30N 49°40' W 003°45'918.9
2017-Sep-25 04:00N 49°44' W 003°32'1019.4
2017-Sep-25 03:30N 49°48' W 003°19'1019.8
2017-Sep-25 03:00N 49°53' W 003°06'1019.5
2017-Sep-25 02:31N 49°58' W 002°52'1019.4
2017-Sep-25 02:00N 50°00' W 002°38'7223.8
2017-Sep-24 23:00N 49°48' W 000°48'21 7.5 320 / 51015.710.8 15.0 9.212.0
2017-Sep-24 20:15N 49°36' W 000°22'417.8
2017-Sep-24 20:00N 49°34' W 000°16'815.5
2017-Sep-24 19:30N 49°31' W 000°05'714.7
2017-Sep-24 19:00N 49°29' E 000°06'0 0.6
2017-Sep-24 18:31N 49°29' E 000°06'0 0.0
2017-Sep-24 17:58N 49°29' E 000°06'0 0.0
2017-Sep-24 17:30N 49°29' E 000°06'0 0.0
2017-Sep-24 16:59N 49°29' E 000°06'0 0.0
2017-Sep-24 16:29N 49°29' E 000°06'0 0.0
2017-Sep-24 15:58N 49°29' E 000°06'0 0.0
2017-Sep-24 15:28N 49°29' E 000°06'0 0.0
2017-Sep-24 14:58N 49°29' E 000°06'0 0.0
2017-Sep-24 14:28N 49°29' E 000°06'0 0.0
2017-Sep-24 13:58N 49°29' E 000°06'0 0.0
2017-Sep-24 13:28N 49°29' E 000°06'0 0.0
2017-Sep-24 12:58N 49°29' E 000°06'0 0.0
2017-Sep-24 12:28N 49°29' E 000°06'0 0.0
2017-Sep-24 11:58N 49°29' E 000°06'0 0.0
2017-Sep-24 11:28N 49°29' E 000°06'0 0.0
2017-Sep-24 10:58N 49°29' E 000°06'0 0.0
2017-Sep-24 10:28N 49°29' E 000°06'0 0.0
2017-Sep-24 09:58N 49°29' E 000°06'0 0.0
2017-Sep-24 09:27N 49°29' E 000°06'0 0.0
2017-Sep-24 09:00N 49°29' E 000°06'0 0.0
2017-Sep-24 08:30N 49°29' E 000°06'0 0.0
2017-Sep-24 08:00N 49°29' E 000°06'0 0.0
2017-Sep-24 07:29N 49°29' E 000°06'0 0.0
2017-Sep-24 06:58N 49°29' E 000°06'0 0.0
2017-Sep-24 06:30N 49°29' E 000°06'0 0.0
2017-Sep-24 05:59N 49°29' E 000°06'0 0.0
2017-Sep-24 05:29N 49°29' E 000°06'0 0.0
2017-Sep-24 04:59N 49°29' E 000°06'0 0.8
2017-Sep-24 04:31N 49°29' E 000°07'510.5
2017-Sep-24 04:00N 49°30' W 000°01'611.2
2017-Sep-24 03:30N 49°32' W 000°09'714.4
2017-Sep-24 03:00N 49°36' W 000°19'815.8
2017-Sep-24 02:30N 49°43' W 000°22'815.7
2017-Sep-24 02:00N 49°51' W 000°19'917.6
2017-Sep-24 01:30N 49°59' W 000°14'918.0
2017-Sep-24 01:00N 50°07' W 000°08'917.6
2017-Sep-24 00:31N 50°16' W 000°09'816.5
2017-Sep-24 00:00N 50°24' W 000°07'816.1
2017-Sep-23 23:30N 50°28' E 000°04'816.4
2017-Sep-23 23:00N 50°31' E 000°16'816.4
2017-Sep-23 22:31N 50°33' E 000°29'816.7
2017-Sep-23 22:01N 50°37' E 000°40'917.9
2017-Sep-23 21:31N 50°42' E 000°52'1019.1
2017-Sep-23 21:00N 50°48' E 001°04'12755.5
2017-Sep-23 21:00N 50°42' E 000°48'2244.5 180 / 151015.710.8 14.0 8.012.0
2017-Sep-23 20:30N 50°54' E 001°16'1021.0
2017-Sep-23 20:01N 51°02' E 001°28'68 2.9
2017-Sep-22 21:00N 50°18' E 000°06'52 2.7 180 / 151015.710.8 14.0 8.012.0
2017-Sep-22 02:01N 50°44' W 001°04'612.6
2017-Sep-22 01:30N 50°39' W 000°58'611.4
2017-Sep-22 01:01N 50°34' W 000°59'612.9
2017-Sep-22 00:30N 50°31' W 001°09'815.3
2017-Sep-22 00:00N 50°28' W 001°20'3416.7
2017-Sep-21 22:00N 50°12' W 002°06'1536.2 300 / 151015.710.8 14.0 8.012.0
2017-Sep-21 21:35N 50°13' W 002°29'220.5
2017-Sep-21 21:30N 50°12' W 002°31'1020.5
2017-Sep-21 21:00N 50°09' W 002°46'1019.2
2017-Sep-21 20:30N 50°04' W 002°60'918.1
2017-Sep-21 20:00N 49°55' W 002°58'918.2
2017-Sep-21 19:30N 49°46' W 002°56'16 1.0
2017-Sep-21 03:46N 49°30' W 002°51'619.4
2017-Sep-21 03:29N 49°36' W 002°53'1119.1
2017-Sep-21 02:54N 49°47' W 002°55'718.9
2017-Sep-21 02:30N 49°54' W 002°57'918.9
2017-Sep-21 02:00N 49°59' W 002°44'2621.3
2017-Sep-21 00:47N 50°06' W 002°05'620.6
2017-Sep-21 00:30N 50°07' W 001°56'1019.8
2017-Sep-21 00:00N 50°09' W 001°41'918.8
2017-Sep-20 23:31N 50°12' W 001°28'917.8
2017-Sep-20 23:00N 50°15' W 001°14'865237.9
2017-Sep-20 23:00N 50°12' E 001°00'78157.4 210 / 331015.710.8 14.0 8.012.0
2017-Sep-20 22:30N 50°17' W 001°01'915.5
2017-Sep-20 21:55N 50°19' W 000°47'815.0
2017-Sep-20 21:23N 50°22' W 000°36'615.0
2017-Sep-20 21:00N 50°24' W 000°28'714.9
2017-Sep-20 20:30N 50°25' W 000°16'815.7
2017-Sep-20 20:00N 50°27' W 000°04'816.4
2017-Sep-20 19:30N 50°29' E 000°08'817.0
2017-Sep-20 19:00N 50°31' E 000°21'918.0
2017-Sep-20 18:30N 50°34' E 000°35'918.8
2017-Sep-20 18:00N 50°40' E 000°46'1019.2
2017-Sep-20 17:30N 50°45' E 000°59'1019.2
2017-Sep-20 17:00N 50°51' E 001°11'1019.0
2017-Sep-20 16:30N 50°58' E 001°22'918.2
2017-Sep-20 16:01N 51°04' E 001°32'816.9
2017-Sep-20 15:30N 51°10' E 001°41'816.7
2017-Sep-20 15:00N 51°17' E 001°49'1515.0
2017-Sep-20 14:00N 51°32' E 001°51'11706.6
2017-Sep-20 14:00N 51°42' E 001°42'3 6.4 210 / 201018.010.8 12.0 7.913.0
2017-Sep-20 13:31N 51°40' E 001°45'816.8
2017-Sep-20 13:00N 51°48' E 001°44'816.8
2017-Sep-20 12:30N 51°57' E 001°44'816.9
2017-Sep-20 12:00N 52°05' E 001°45'1316.7
2017-Sep-20 11:15N 52°17' E 001°50'417.5
2017-Sep-20 11:00N 52°21' E 001°52'3186.0
2017-Sep-20 11:00N 52°24' E 001°54'612.4 240 / 201015.810.8 15.0 4.213.0
2017-Sep-20 10:30N 52°30' E 001°56'918.2
2017-Sep-20 10:00N 52°39' E 001°57'918.0
2017-Sep-20 09:30N 52°47' E 001°50'1019.0
2017-Sep-20 09:00N 52°54' E 001°39'1019.7
2017-Sep-20 08:30N 53°02' E 001°30'1619.8
2017-Sep-20 07:43N 53°14' E 001°14'419.3
2017-Sep-20 07:30N 53°18' E 001°11'1019.4
2017-Sep-20 06:58N 53°27' E 001°03'3419.5
2017-Sep-20 05:13N 53°56' E 000°32'419.9
2017-Sep-20 05:00N 53°59' E 000°28'1020.0
2017-Sep-20 04:30N 54°08' E 000°19'1019.9
2017-Sep-20 04:00N 54°17' E 000°12'1020.2
2017-Sep-20 03:30N 54°25' E 000°02'1020.3
2017-Sep-20 03:00N 54°33' W 000°08'4218.1
2017-Sep-20 03:00N 54°30' W 000°06'1428.2 200 / 161015.810.8 12.0 7.913.0
2017-Sep-20 02:30N 54°42' W 000°18'1019.9
2017-Sep-20 02:00N 54°50' W 000°27'1019.7
2017-Sep-20 01:30N 54°59' W 000°36'1019.5
2017-Sep-20 01:00N 55°07' W 000°45'1019.6
2017-Sep-20 00:30N 55°15' W 000°54'1019.8
2017-Sep-20 00:00N 55°23' W 001°05'1019.7
2017-Sep-19 23:30N 55°31' W 001°15'1019.2
2017-Sep-19 23:00N 55°39' W 001°24'918.7
2017-Sep-19 22:31N 55°46' W 001°35'918.7
2017-Sep-19 22:00N 55°53' W 001°46'14871.7
2017-Sep-19 22:00N 55°42' W 001°30'2348.5 250 / 161018.910.8 12.010.113.0
2017-Sep-19 21:30N 55°60' W 001°57'917.7
2017-Sep-19 21:00N 56°04' W 002°11'918.4
2017-Sep-19 20:30N 56°06' W 002°27'918.6
2017-Sep-19 20:00N 56°06' W 002°44'918.6
2017-Sep-19 19:30N 56°03' W 002°60'714.7
2017-Sep-19 19:00N 56°02' W 003°13'611.1
2017-Sep-19 18:30N 56°00' W 003°22'0 0.2
2017-Sep-19 17:59N 56°00' W 003°22'0 0.0
2017-Sep-19 13:38N 56°00' W 003°22'0 0.1
2017-Sep-19 13:23N 56°00' W 003°22'0 0.1
2017-Sep-19 12:29N 56°00' W 003°23'0 0.0
2017-Sep-19 11:59N 56°00' W 003°23'0 0.0
2017-Sep-19 11:14N 56°00' W 003°23'0 0.0
2017-Sep-19 10:47N 56°00' W 003°23'0 0.1
2017-Sep-19 10:14N 56°00' W 003°23'0 0.1
2017-Sep-19 08:05N 56°00' W 003°22'0 0.1
2017-Sep-19 07:47N 56°00' W 003°22'0 0.0
2017-Sep-19 07:26N 56°00' W 003°22'0 0.0
2017-Sep-19 06:44N 56°00' W 003°22'0 0.2
2017-Sep-19 06:30N 56°00' W 003°22'4 8.3
2017-Sep-19 06:00N 56°02' W 003°16'612.5
2017-Sep-19 05:30N 56°03' W 003°05'510.1
2017-Sep-19 05:00N 56°05' W 002°56'611.7
2017-Sep-19 04:30N 56°06' W 002°46'611.8
2017-Sep-19 04:00N 56°08' W 002°36'611.6
2017-Sep-19 03:30N 56°11' W 002°27'715.0
2017-Sep-19 03:01N 56°18' W 002°20'13775.2
2017-Sep-19 03:00N 56°30' W 002°12'510.4 230 / 161018.910.8 12.010.113.0
2017-Sep-19 02:31N 56°25' W 002°12'917.4
2017-Sep-19 02:01N 56°32' W 002°04'917.8
2017-Sep-19 01:30N 56°41' W 001°57'918.0
2017-Sep-19 01:00N 56°49' W 001°51'918.1
2017-Sep-19 00:30N 56°57' W 001°44'918.1
2017-Sep-19 00:00N 57°06' W 001°38'918.7
2017-Sep-18 23:30N 57°15' W 001°36'1018.9
2017-Sep-18 23:00N 57°25' W 001°35'63124.6
2017-Sep-18 23:00N 57°30' W 001°30'510.3 060 / 51019.110.8 12.010.713.0
2017-Sep-18 22:31N 57°34' W 001°36'1019.3
2017-Sep-18 22:01N 57°42' W 001°45'918.0
2017-Sep-18 21:30N 57°47' W 001°59'32 1.6
2017-Sep-18 01:00N 58°00' W 002°54'2916.0 030 / 61020.110.8 11.8 9.213.0
2017-Sep-17 23:09N 58°29' W 002°42'213.3
2017-Sep-17 23:00N 58°31' W 002°44'6486.4
2017-Sep-17 23:00N 58°36' W 002°48'1 2.8 030 / 151019.410.8 11.8 9.213.0
2017-Sep-17 22:30N 58°36' W 002°51'713.6
2017-Sep-17 22:01N 58°41' W 003°00'713.2
2017-Sep-17 21:30N 58°43' W 003°12'714.2
2017-Sep-17 21:00N 58°43' W 003°26'713.8
2017-Sep-17 20:30N 58°43' W 003°39'612.3
2017-Sep-17 20:00N 58°43' W 003°51'612.1
2017-Sep-17 19:30N 58°43' W 004°03'612.2
2017-Sep-17 19:00N 58°43' W 004°14'612.0
2017-Sep-17 18:30N 58°43' W 004°26'2911.1
2017-Sep-17 15:53N 58°34' W 005°20'512.3
2017-Sep-17 15:30N 58°30' W 005°24'10212.0
2017-Sep-17 07:00N 57°00' W 006°54'5010.0 050 / 151019.410.8 11.8 9.213.0
2017-Sep-17 02:00N 56°12' W 007°18'2020.0 030 / 151017.010.8 12.0 9.013.0
2017-Sep-17 00:58N 55°54' W 007°02'918.4
2017-Sep-17 00:30N 55°46' W 006°54'1019.2
2017-Sep-17 00:00N 55°38' W 006°46'918.7
2017-Sep-16 23:30N 55°32' W 006°33'1019.3
2017-Sep-16 23:00N 55°28' W 006°18'8488.3
2017-Sep-16 23:00N 55°24' W 006°06'2 3.8 030 / 151014.910.8 12.0 9.013.0
2017-Sep-16 22:30N 55°24' W 006°03'918.8
2017-Sep-16 22:00N 55°17' W 005°53'1117.2
2017-Sep-16 21:23N 55°14' W 005°35'717.2
2017-Sep-16 21:00N 55°17' W 005°23'917.0
2017-Sep-16 20:30N 55°20' W 005°09'1415.1
2017-Sep-16 19:33N 55°32' W 004°55'117.0
2017-Sep-16 19:30N 55°33' W 004°56'916.9
2017-Sep-16 19:00N 55°41' W 004°59'816.5
2017-Sep-16 18:30N 55°49' W 004°57'815.1
2017-Sep-16 17:59N 55°57' W 004°54'5 0.3
2017-Sep-16 04:34N 55°52' W 004°56'113.7
2017-Sep-16 04:29N 55°51' W 004°56'613.3
2017-Sep-16 04:00N 55°45' W 004°59'611.3
2017-Sep-16 03:30N 55°39' W 004°58'611.7
2017-Sep-16 03:00N 55°33' W 004°56'611.1
2017-Sep-16 02:30N 55°28' W 004°54'4 7.8
2017-Sep-16 02:00N 55°24' W 004°54'35926.0 350 / 301014.910.8 12.0 9.013.0
2017-Sep-16 01:59N 55°23' W 004°59'610.6
2017-Sep-16 01:27N 55°20' W 005°08'1010.3
2017-Sep-16 00:31N 55°12' W 005°18'011.5
2017-Sep-16 00:29N 55°12' W 005°18'511.0
2017-Sep-16 00:00N 55°09' W 005°26'611.4
2017-Sep-15 23:30N 55°09' W 005°36'5 9.5
2017-Sep-15 23:00N 55°05' W 005°42'510.7
2017-Sep-15 22:30N 55°01' W 005°37'714.6
2017-Sep-15 22:00N 54°54' W 005°30'3333.0
2017-Sep-15 22:00N 54°54' W 005°24'   300 / 58994.8 5.4 12.0 9.013.0
Track history (hours):
 
Tides and Currents Weather Stations Pressure Air Temp Water Temp Dewpoint Dewpoint Depression Visibility Wind Speed Wind Dir Waves Ship Positions

Caribbean Princess

Operator: Princess Cruises

Last reported at 2017-Sep-25 22:00 UTC. Time now 2017-Sep-26 03:59 UTC.
Position N 45°48' W 008°12'.

Type: Passenger vessel. MMSI: 310423000.

Barometer 1019.5 mb
Air temperature 17.0 ° C
Visibility: greater than 10.8 NM
Dewpoint -2.6 ° C
Water temperature 17.0 ° C

Date/timePositionNaut miles runAvg speedWind from/ knotsBaromVisibWave heightAir tempDewpointWater temp
2017-Sep-25 22:00N 45°48' W 008°12'12116.4 1019.510.8 17.0-2.617.0
2017-Sep-25 14:38N 47°35' W 006°50'7519.1
2017-Sep-25 10:43N 48°41' W 005°59'519.2
2017-Sep-25 10:29N 48°45' W 005°55'918.8
2017-Sep-25 10:00N 48°53' W 005°48'917.6
2017-Sep-25 09:30N 48°58' W 005°36'917.0
2017-Sep-25 09:00N 49°02' W 005°25'817.0
2017-Sep-25 08:30N 49°06' W 005°14'816.5
2017-Sep-25 08:00N 49°10' W 005°03'816.1
2017-Sep-25 07:29N 49°15' W 004°52'816.1
2017-Sep-25 07:00N 49°19' W 004°42'815.9
2017-Sep-25 06:29N 49°24' W 004°32'816.4
2017-Sep-25 06:00N 49°28' W 004°21'1016.9
2017-Sep-25 05:23N 49°33' W 004°07'717.5
2017-Sep-25 05:00N 49°36' W 003°58'918.2
2017-Sep-25 04:30N 49°40' W 003°45'918.9
2017-Sep-25 04:00N 49°44' W 003°32'1019.4
2017-Sep-25 03:30N 49°48' W 003°19'1019.8
2017-Sep-25 03:00N 49°53' W 003°06'1019.5
2017-Sep-25 02:31N 49°58' W 002°52'1019.4
2017-Sep-25 02:00N 50°00' W 002°38'7223.8
2017-Sep-24 23:00N 49°48' W 000°48'21 7.5 320 / 51015.710.8 15.0 9.212.0
2017-Sep-24 20:15N 49°36' W 000°22'417.8
2017-Sep-24 20:00N 49°34' W 000°16'815.5
2017-Sep-24 19:30N 49°31' W 000°05'714.7
2017-Sep-24 19:00N 49°29' E 000°06'0 0.6
2017-Sep-24 18:31N 49°29' E 000°06'0 0.0
2017-Sep-24 17:58N 49°29' E 000°06'0 0.0
2017-Sep-24 17:30N 49°29' E 000°06'0 0.0
2017-Sep-24 16:59N 49°29' E 000°06'0 0.0
2017-Sep-24 16:29N 49°29' E 000°06'0 0.0
2017-Sep-24 15:58N 49°29' E 000°06'0 0.0
2017-Sep-24 15:28N 49°29' E 000°06'0 0.0
2017-Sep-24 14:58N 49°29' E 000°06'0 0.0
2017-Sep-24 14:28N 49°29' E 000°06'0 0.0
2017-Sep-24 13:58N 49°29' E 000°06'0 0.0
2017-Sep-24 13:28N 49°29' E 000°06'0 0.0
2017-Sep-24 12:58N 49°29' E 000°06'0 0.0
2017-Sep-24 12:28N 49°29' E 000°06'0 0.0
2017-Sep-24 11:58N 49°29' E 000°06'0 0.0
2017-Sep-24 11:28N 49°29' E 000°06'0 0.0
2017-Sep-24 10:58N 49°29' E 000°06'0 0.0
2017-Sep-24 10:28N 49°29' E 000°06'0 0.0
2017-Sep-24 09:58N 49°29' E 000°06'0 0.0
2017-Sep-24 09:27N 49°29' E 000°06'0 0.0
2017-Sep-24 09:00N 49°29' E 000°06'0 0.0
2017-Sep-24 08:30N 49°29' E 000°06'0 0.0
2017-Sep-24 08:00N 49°29' E 000°06'0 0.0
2017-Sep-24 07:29N 49°29' E 000°06'0 0.0
2017-Sep-24 06:58N 49°29' E 000°06'0 0.0
2017-Sep-24 06:30N 49°29' E 000°06'0 0.0
2017-Sep-24 05:59N 49°29' E 000°06'0 0.0
2017-Sep-24 05:29N 49°29' E 000°06'0 0.0
2017-Sep-24 04:59N 49°29' E 000°06'0 0.8
2017-Sep-24 04:31N 49°29' E 000°07'510.5
2017-Sep-24 04:00N 49°30' W 000°01'611.2
2017-Sep-24 03:30N 49°32' W 000°09'714.4
2017-Sep-24 03:00N 49°36' W 000°19'815.8
2017-Sep-24 02:30N 49°43' W 000°22'815.7
2017-Sep-24 02:00N 49°51' W 000°19'917.6
2017-Sep-24 01:30N 49°59' W 000°14'918.0
2017-Sep-24 01:00N 50°07' W 000°08'917.6
2017-Sep-24 00:31N 50°16' W 000°09'816.5
2017-Sep-24 00:00N 50°24' W 000°07'816.1
2017-Sep-23 23:30N 50°28' E 000°04'816.4
2017-Sep-23 23:00N 50°31' E 000°16'816.4
2017-Sep-23 22:31N 50°33' E 000°29'816.7
2017-Sep-23 22:01N 50°37' E 000°40'917.9
2017-Sep-23 21:31N 50°42' E 000°52'1019.1
2017-Sep-23 21:00N 50°48' E 001°04'12755.5
2017-Sep-23 21:00N 50°42' E 000°48'2244.5 180 / 151015.710.8 14.0 8.012.0
2017-Sep-23 20:30N 50°54' E 001°16'1021.0
2017-Sep-23 20:01N 51°02' E 001°28'68 2.9
2017-Sep-22 21:00N 50°18' E 000°06'52 2.7 180 / 151015.710.8 14.0 8.012.0
2017-Sep-22 02:01N 50°44' W 001°04'612.6
2017-Sep-22 01:30N 50°39' W 000°58'611.4
2017-Sep-22 01:01N 50°34' W 000°59'612.9
2017-Sep-22 00:30N 50°31' W 001°09'815.3
2017-Sep-22 00:00N 50°28' W 001°20'3416.7
2017-Sep-21 22:00N 50°12' W 002°06'1536.2 300 / 151015.710.8 14.0 8.012.0
2017-Sep-21 21:35N 50°13' W 002°29'220.5
2017-Sep-21 21:30N 50°12' W 002°31'1020.5
2017-Sep-21 21:00N 50°09' W 002°46'1019.2
2017-Sep-21 20:30N 50°04' W 002°60'918.1
2017-Sep-21 20:00N 49°55' W 002°58'918.2
2017-Sep-21 19:30N 49°46' W 002°56'16 1.0
2017-Sep-21 03:46N 49°30' W 002°51'619.4
2017-Sep-21 03:29N 49°36' W 002°53'1119.1
2017-Sep-21 02:54N 49°47' W 002°55'718.9
2017-Sep-21 02:30N 49°54' W 002°57'918.9
2017-Sep-21 02:00N 49°59' W 002°44'2621.3
2017-Sep-21 00:47N 50°06' W 002°05'620.6
2017-Sep-21 00:30N 50°07' W 001°56'1019.8
2017-Sep-21 00:00N 50°09' W 001°41'918.8
2017-Sep-20 23:31N 50°12' W 001°28'917.8
2017-Sep-20 23:00N 50°15' W 001°14'865237.9
2017-Sep-20 23:00N 50°12' E 001°00'78157.4 210 / 331015.710.8 14.0 8.012.0
2017-Sep-20 22:30N 50°17' W 001°01'915.5
2017-Sep-20 21:55N 50°19' W 000°47'815.0
2017-Sep-20 21:23N 50°22' W 000°36'615.0
2017-Sep-20 21:00N 50°24' W 000°28'714.9
2017-Sep-20 20:30N 50°25' W 000°16'815.7
2017-Sep-20 20:00N 50°27' W 000°04'816.4
2017-Sep-20 19:30N 50°29' E 000°08'817.0
2017-Sep-20 19:00N 50°31' E 000°21'918.0
2017-Sep-20 18:30N 50°34' E 000°35'918.8
2017-Sep-20 18:00N 50°40' E 000°46'1019.2
2017-Sep-20 17:30N 50°45' E 000°59'1019.2
2017-Sep-20 17:00N 50°51' E 001°11'1019.0
2017-Sep-20 16:30N 50°58' E 001°22'918.2
2017-Sep-20 16:01N 51°04' E 001°32'816.9
2017-Sep-20 15:30N 51°10' E 001°41'816.7
2017-Sep-20 15:00N 51°17' E 001°49'1515.0
2017-Sep-20 14:00N 51°32' E 001°51'11706.6
2017-Sep-20 14:00N 51°42' E 001°42'3 6.4 210 / 201018.010.8 12.0 7.913.0
2017-Sep-20 13:31N 51°40' E 001°45'816.8
2017-Sep-20 13:00N 51°48' E 001°44'816.8
2017-Sep-20 12:30N 51°57' E 001°44'816.9
2017-Sep-20 12:00N 52°05' E 001°45'1316.7
2017-Sep-20 11:15N 52°17' E 001°50'417.5
2017-Sep-20 11:00N 52°21' E 001°52'3186.0
2017-Sep-20 11:00N 52°24' E 001°54'612.4 240 / 201015.810.8 15.0 4.213.0
2017-Sep-20 10:30N 52°30' E 001°56'918.2
2017-Sep-20 10:00N 52°39' E 001°57'918.0
2017-Sep-20 09:30N 52°47' E 001°50'1019.0
2017-Sep-20 09:00N 52°54' E 001°39'1019.7
2017-Sep-20 08:30N 53°02' E 001°30'1619.8
2017-Sep-20 07:43N 53°14' E 001°14'419.3
2017-Sep-20 07:30N 53°18' E 001°11'1019.4
2017-Sep-20 06:58N 53°27' E 001°03'3419.5
2017-Sep-20 05:13N 53°56' E 000°32'419.9
2017-Sep-20 05:00N 53°59' E 000°28'1020.0
2017-Sep-20 04:30N 54°08' E 000°19'1019.9
2017-Sep-20 04:00N 54°17' E 000°12'1020.2
2017-Sep-20 03:30N 54°25' E 000°02'1020.3
2017-Sep-20 03:00N 54°33' W 000°08'4218.1
2017-Sep-20 03:00N 54°30' W 000°06'1428.2 200 / 161015.810.8 12.0 7.913.0
2017-Sep-20 02:30N 54°42' W 000°18'1019.9
2017-Sep-20 02:00N 54°50' W 000°27'1019.7
2017-Sep-20 01:30N 54°59' W 000°36'1019.5
2017-Sep-20 01:00N 55°07' W 000°45'1019.6
2017-Sep-20 00:30N 55°15' W 000°54'1019.8
2017-Sep-20 00:00N 55°23' W 001°05'1019.7
2017-Sep-19 23:30N 55°31' W 001°15'1019.2
2017-Sep-19 23:00N 55°39' W 001°24'918.7
2017-Sep-19 22:31N 55°46' W 001°35'918.7
2017-Sep-19 22:00N 55°53' W 001°46'14871.7
2017-Sep-19 22:00N 55°42' W 001°30'2348.5 250 / 161018.910.8 12.010.113.0
2017-Sep-19 21:30N 55°60' W 001°57'917.7
2017-Sep-19 21:00N 56°04' W 002°11'918.4
2017-Sep-19 20:30N 56°06' W 002°27'918.6
2017-Sep-19 20:00N 56°06' W 002°44'918.6
2017-Sep-19 19:30N 56°03' W 002°60'714.7
2017-Sep-19 19:00N 56°02' W 003°13'611.1
2017-Sep-19 18:30N 56°00' W 003°22'0 0.2
2017-Sep-19 17:59N 56°00' W 003°22'0 0.0
2017-Sep-19 13:38N 56°00' W 003°22'0 0.1
2017-Sep-19 13:23N 56°00' W 003°22'0 0.1
2017-Sep-19 12:29N 56°00' W 003°23'0 0.0
2017-Sep-19 11:59N 56°00' W 003°23'0 0.0
2017-Sep-19 11:14N 56°00' W 003°23'0 0.0
2017-Sep-19 10:47N 56°00' W 003°23'0 0.1
2017-Sep-19 10:14N 56°00' W 003°23'0 0.1
2017-Sep-19 08:05N 56°00' W 003°22'0 0.1
2017-Sep-19 07:47N 56°00' W 003°22'0 0.0
2017-Sep-19 07:26N 56°00' W 003°22'0 0.0
2017-Sep-19 06:44N 56°00' W 003°22'0 0.2
2017-Sep-19 06:30N 56°00' W 003°22'4 8.3
2017-Sep-19 06:00N 56°02' W 003°16'612.5
2017-Sep-19 05:30N 56°03' W 003°05'510.1
2017-Sep-19 05:00N 56°05' W 002°56'611.7
2017-Sep-19 04:30N 56°06' W 002°46'611.8
2017-Sep-19 04:00N 56°08' W 002°36'611.6
2017-Sep-19 03:30N 56°11' W 002°27'715.0
2017-Sep-19 03:01N 56°18' W 002°20'13775.2
2017-Sep-19 03:00N 56°30' W 002°12'510.4 230 / 161018.910.8 12.010.113.0
2017-Sep-19 02:31N 56°25' W 002°12'917.4
2017-Sep-19 02:01N 56°32' W 002°04'917.8
2017-Sep-19 01:30N 56°41' W 001°57'918.0
2017-Sep-19 01:00N 56°49' W 001°51'918.1
2017-Sep-19 00:30N 56°57' W 001°44'918.1
2017-Sep-19 00:00N 57°06' W 001°38'918.7
2017-Sep-18 23:30N 57°15' W 001°36'1018.9
2017-Sep-18 23:00N 57°25' W 001°35'63124.6
2017-Sep-18 23:00N 57°30' W 001°30'510.3 060 / 51019.110.8 12.010.713.0
2017-Sep-18 22:31N 57°34' W 001°36'1019.3
2017-Sep-18 22:01N 57°42' W 001°45'918.0
2017-Sep-18 21:30N 57°47' W 001°59'32 1.6
2017-Sep-18 01:00N 58°00' W 002°54'2916.0 030 / 61020.110.8 11.8 9.213.0
2017-Sep-17 23:09N 58°29' W 002°42'213.3
2017-Sep-17 23:00N 58°31' W 002°44'6486.4
2017-Sep-17 23:00N 58°36' W 002°48'1 2.8 030 / 151019.410.8 11.8 9.213.0
2017-Sep-17 22:30N 58°36' W 002°51'713.6
2017-Sep-17 22:01N 58°41' W 003°00'713.2
2017-Sep-17 21:30N 58°43' W 003°12'714.2
2017-Sep-17 21:00N 58°43' W 003°26'713.8
2017-Sep-17 20:30N 58°43' W 003°39'612.3
2017-Sep-17 20:00N 58°43' W 003°51'612.1
2017-Sep-17 19:30N 58°43' W 004°03'612.2
2017-Sep-17 19:00N 58°43' W 004°14'612.0
2017-Sep-17 18:30N 58°43' W 004°26'2911.1
2017-Sep-17 15:53N 58°34' W 005°20'512.3
2017-Sep-17 15:30N 58°30' W 005°24'10212.0
2017-Sep-17 07:00N 57°00' W 006°54'5010.0 050 / 151019.410.8 11.8 9.213.0
2017-Sep-17 02:00N 56°12' W 007°18'2020.0 030 / 151017.010.8 12.0 9.013.0
2017-Sep-17 00:58N 55°54' W 007°02'918.4
2017-Sep-17 00:30N 55°46' W 006°54'1019.2
2017-Sep-17 00:00N 55°38' W 006°46'918.7
2017-Sep-16 23:30N 55°32' W 006°33'1019.3
2017-Sep-16 23:00N 55°28' W 006°18'8488.3
2017-Sep-16 23:00N 55°24' W 006°06'2 3.8 030 / 151014.910.8 12.0 9.013.0
2017-Sep-16 22:30N 55°24' W 006°03'918.8
2017-Sep-16 22:00N 55°17' W 005°53'1117.2
2017-Sep-16 21:23N 55°14' W 005°35'717.2
2017-Sep-16 21:00N 55°17' W 005°23'917.0
2017-Sep-16 20:30N 55°20' W 005°09'1415.1
2017-Sep-16 19:33N 55°32' W 004°55'117.0
2017-Sep-16 19:30N 55°33' W 004°56'916.9
2017-Sep-16 19:00N 55°41' W 004°59'816.5
2017-Sep-16 18:30N 55°49' W 004°57'815.1
2017-Sep-16 17:59N 55°57' W 004°54'5 0.3
2017-Sep-16 04:34N 55°52' W 004°56'113.7
2017-Sep-16 04:29N 55°51' W 004°56'613.3
2017-Sep-16 04:00N 55°45' W 004°59'611.3
2017-Sep-16 03:30N 55°39' W 004°58'611.7
2017-Sep-16 03:00N 55°33' W 004°56'611.1
2017-Sep-16 02:30N 55°28' W 004°54'4 7.8
2017-Sep-16 02:00N 55°24' W 004°54'35926.0 350 / 301014.910.8 12.0 9.013.0
2017-Sep-16 01:59N 55°23' W 004°59'610.6
2017-Sep-16 01:27N 55°20' W 005°08'1010.3
2017-Sep-16 00:31N 55°12' W 005°18'011.5
2017-Sep-16 00:29N 55°12' W 005°18'511.0
2017-Sep-16 00:00N 55°09' W 005°26'611.4
2017-Sep-15 23:30N 55°09' W 005°36'5 9.5
2017-Sep-15 23:00N 55°05' W 005°42'510.7
2017-Sep-15 22:30N 55°01' W 005°37'714.6
2017-Sep-15 22:00N 54°54' W 005°30'3333.0
2017-Sep-15 22:00N 54°54' W 005°24'   300 / 58994.8 5.4 12.0 9.013.0

Dump ship's entire track history